createdAt,value
2022-10-17T00:00:49.528Z,97096.97
2022-10-17T00:03:16.910Z,97100.28
2022-10-17T00:05:47.261Z,97090.06
2022-10-17T00:08:17.352Z,97095.34
2022-10-17T00:10:44.601Z,97106.16
2022-10-17T00:13:12.489Z,97094.94
2022-10-17T00:15:43.680Z,97099.41
2022-10-17T00:18:10.484Z,97108.38
2022-10-17T00:20:37.314Z,97108.00
2022-10-17T00:23:04.109Z,97105.75
2022-10-17T00:25:30.875Z,97108.00
2022-10-17T00:27:57.657Z,97109.19
2022-10-17T00:30:24.480Z,97102.03
2022-10-17T00:32:51.304Z,97110.00
2022-10-17T00:35:18.160Z,97116.28
2022-10-17T00:37:44.958Z,97120.38
2022-10-17T00:40:12.548Z,97123.81
2022-10-17T00:42:39.514Z,97121.38
2022-10-17T00:45:27.608Z,97106.66
2022-10-17T00:48:05.640Z,97116.06
2022-10-17T00:50:34.113Z,97116.06
2022-10-17T00:53:04.272Z,97119.13
2022-10-17T00:55:35.747Z,97114.44
2022-10-17T00:58:04.867Z,97117.28
2022-10-17T01:00:32.506Z,97112.19
2022-10-17T01:02:59.708Z,97117.69
2022-10-17T01:05:26.607Z,97111.97
2022-10-17T01:07:54.178Z,97111.78
2022-10-17T01:13:04.587Z,97105.44
2022-10-17T01:16:15.017Z,97108.28
2022-10-17T01:18:56.824Z,97111.59
2022-10-17T01:21:56.954Z,97114.88
2022-10-17T01:25:03.887Z,97105.53
2022-10-17T01:27:50.890Z,97110.66
2022-10-17T01:30:51.210Z,97112.91
2022-10-17T01:33:33.011Z,97113.16
2022-10-17T01:36:50.421Z,97110.06
2022-10-17T01:39:34.436Z,97114.03
2022-10-17T01:42:34.770Z,97117.28
2022-10-17T01:45:21.605Z,97108.28
2022-10-17T01:47:52.475Z,97113.56
2022-10-17T01:50:32.606Z,97109.94
2022-10-17T01:53:13.737Z,97105.84
2022-10-17T01:55:43.882Z,97105.66
2022-10-17T01:58:25.540Z,97102.63
2022-10-17T02:00:53.918Z,97111.19
2022-10-17T02:03:22.036Z,97104.69
2022-10-17T02:05:49.307Z,97106.50
2022-10-17T02:08:27.170Z,97109.50
2022-10-17T02:11:04.069Z,97108.09
2022-10-17T02:17:09.701Z,97104.44
2022-10-17T02:19:57.723Z,97098.16
2022-10-17T02:22:48.016Z,97105.47
2022-10-17T02:25:42.894Z,97109.56
2022-10-17T02:28:31.223Z,97109.16
2022-10-17T02:31:08.153Z,97113.63
2022-10-17T02:34:07.008Z,97112.41
2022-10-17T02:36:40.314Z,97113.41
2022-10-17T02:39:09.164Z,97115.66
2022-10-17T02:41:38.355Z,97111.19
2022-10-17T02:44:06.823Z,97119.75
2022-10-17T02:46:35.539Z,97121.31
2022-10-17T02:49:16.937Z,97112.78
2022-10-17T02:52:02.796Z,97111.94
2022-10-17T02:54:50.290Z,97113.97
2022-10-17T02:57:27.513Z,97120.50
2022-10-17T02:59:58.485Z,97125.41
2022-10-17T03:02:25.389Z,97122.97
2022-10-17T03:04:52.213Z,97128.91
2022-10-17T03:07:19.079Z,97129.47
2022-10-17T03:09:45.864Z,97125.34
2022-10-17T03:12:12.632Z,97129.78
2022-10-17T03:14:39.394Z,97134.44
2022-10-17T03:17:06.168Z,97132.63
2022-10-17T03:19:33.020Z,97129.38
2022-10-17T03:21:59.800Z,97138.31
2022-10-17T03:24:26.689Z,97136.69
2022-10-17T03:26:53.456Z,97129.31
2022-10-17T03:29:20.304Z,97130.94
2022-10-17T03:31:47.115Z,97128.03
2022-10-17T03:34:16.673Z,97131.16
2022-10-17T03:36:43.632Z,97125.81
2022-10-17T03:39:10.621Z,97132.50
2022-10-17T03:41:37.381Z,97133.50
2022-10-17T03:44:04.411Z,97130.25
2022-10-17T03:46:31.211Z,97127.28
2022-10-17T03:48:58.013Z,97129.56
2022-10-17T03:51:24.912Z,97137.56
2022-10-17T03:53:51.937Z,97124.47
2022-10-17T03:56:22.549Z,97130.25
2022-10-17T03:58:49.374Z,97132.94
2022-10-17T04:01:18.377Z,97134.78
2022-10-17T04:03:50.630Z,97133.50
2022-10-17T04:06:17.922Z,97141.63
2022-10-17T04:08:44.788Z,97136.84
2022-10-17T04:11:16.653Z,97143.34
2022-10-17T04:13:44.334Z,97148.22
2022-10-17T04:16:18.126Z,97152.31
2022-10-17T04:18:45.312Z,97153.91
2022-10-17T04:21:13.099Z,97150.22
2022-10-17T04:23:40.173Z,97148.47
2022-10-17T04:26:07.279Z,97156.03
2022-10-17T04:28:34.828Z,97163.06
2022-10-17T04:31:12.404Z,97159.97
2022-10-17T04:33:39.350Z,97164.84
2022-10-17T04:36:12.986Z,97166.25
2022-10-17T04:38:39.966Z,97170.28
2022-10-17T04:41:11.554Z,97160.47
2022-10-17T04:43:39.734Z,97164.31
2022-10-17T04:46:13.625Z,97165.25
2022-10-17T04:48:41.414Z,97165.88
2022-10-17T04:51:13.737Z,97180.03
2022-10-17T04:53:42.468Z,97177.72
2022-10-17T04:56:16.111Z,97176.16
2022-10-17T04:58:44.521Z,97176.41
2022-10-17T05:01:17.962Z,97182.16
2022-10-17T05:03:45.689Z,97180.63
2022-10-17T05:06:16.337Z,97184.47
2022-10-17T05:08:43.697Z,97183.41
2022-10-17T05:11:23.607Z,97179.03
2022-10-17T05:13:56.552Z,97180.22
2022-10-17T05:16:24.595Z,97178.97
2022-10-17T05:18:53.847Z,97184.38
2022-10-17T05:21:22.222Z,97183.13
2022-10-17T05:23:49.224Z,97196.75
2022-10-17T05:26:16.477Z,97191.19
2022-10-17T05:28:43.365Z,97192.56
2022-10-17T05:31:11.817Z,97199.00
2022-10-17T05:33:39.724Z,97200.63
2022-10-17T05:36:07.785Z,97207.81
2022-10-17T05:38:34.809Z,97212.00
2022-10-17T05:41:04.300Z,97206.00
2022-10-17T05:43:31.900Z,97214.72
2022-10-17T05:45:58.705Z,97204.00
2022-10-17T05:48:25.509Z,97224.16
2022-10-17T05:51:08.847Z,97216.34
2022-10-17T05:53:39.137Z,97211.19
2022-10-17T05:56:08.825Z,97219.06
2022-10-17T05:58:49.756Z,97217.25
2022-10-17T06:01:17.900Z,97220.34
2022-10-17T06:03:44.742Z,97227.25
2022-10-17T06:06:13.714Z,97220.16
2022-10-17T06:08:40.678Z,97221.00
2022-10-17T06:11:10.117Z,97222.69
2022-10-17T06:13:38.765Z,97230.38
2022-10-17T06:16:06.725Z,97232.31
2022-10-17T06:18:33.576Z,97249.84
2022-10-17T06:21:10.154Z,97245.03
2022-10-17T06:23:37.495Z,97242.31
2022-10-17T06:26:06.489Z,97246.94
2022-10-17T06:28:34.480Z,97241.06
2022-10-17T06:31:10.594Z,97251.59
2022-10-17T06:33:37.897Z,97251.47
2022-10-17T06:36:06.995Z,97256.59
2022-10-17T06:38:37.108Z,97247.00
2022-10-17T06:41:16.304Z,97251.44
2022-10-17T06:43:46.290Z,97244.53
2022-10-17T06:46:19.077Z,97256.59
2022-10-17T06:48:46.164Z,97251.00
2022-10-17T06:51:13.161Z,97268.84
2022-10-17T06:53:40.911Z,97265.44
2022-10-17T06:56:08.926Z,97267.06
2022-10-17T06:58:39.565Z,97264.56
2022-10-17T07:01:12.385Z,97271.19
2022-10-17T07:03:40.893Z,97265.78
2022-10-17T07:06:08.655Z,97274.19
2022-10-17T07:08:35.494Z,97276.22
2022-10-17T07:11:15.900Z,97275.09
2022-10-17T07:13:43.426Z,97280.75
2022-10-17T07:16:11.015Z,97280.28
2022-10-17T07:18:38.696Z,97281.31
2022-10-17T07:21:06.032Z,97282.66
2022-10-17T07:23:36.472Z,97293.97
2022-10-17T07:26:10.877Z,97293.44
2022-10-17T07:28:40.625Z,97296.72
2022-10-17T07:31:12.066Z,97293.91
2022-10-17T07:33:39.118Z,97294.88
2022-10-17T07:36:06.697Z,97296.50
2022-10-17T07:38:34.386Z,97304.56
2022-10-17T07:41:04.780Z,97297.41
2022-10-17T07:43:32.547Z,97305.66
2022-10-17T07:46:01.898Z,97308.16
2022-10-17T07:48:28.981Z,97301.28
2022-10-17T07:50:55.821Z,97308.31
2022-10-17T07:53:22.629Z,97312.91
2022-10-17T07:55:49.681Z,97310.22
2022-10-17T07:58:16.894Z,97321.13
2022-10-17T08:00:43.859Z,97312.00
2022-10-17T08:03:11.247Z,97312.84
2022-10-17T08:05:38.032Z,97313.78
2022-10-17T08:08:05.005Z,97308.81
2022-10-17T08:10:31.944Z,97320.16
2022-10-17T08:12:58.922Z,97311.41
2022-10-17T08:15:29.437Z,97307.19
2022-10-17T08:17:59.358Z,97310.41
2022-10-17T08:20:26.852Z,97313.44
2022-10-17T08:22:55.191Z,97316.91
2022-10-17T08:25:22.573Z,97320.75
2022-10-17T08:27:49.910Z,97320.75
2022-10-17T08:30:17.546Z,97315.84
2022-10-17T08:32:44.380Z,97321.94
2022-10-17T08:35:11.773Z,97319.22
2022-10-17T08:37:38.537Z,97311.75
2022-10-17T08:40:06.365Z,97318.84
2022-10-17T08:43:03.109Z,97325.53
2022-10-17T08:45:56.988Z,97310.00
2022-10-17T08:48:26.190Z,97323.75
2022-10-17T08:50:59.738Z,97317.06
2022-10-17T08:53:51.321Z,97318.41
2022-10-17T08:56:25.115Z,97329.25
2022-10-17T08:59:18.313Z,97322.53
2022-10-17T09:01:54.504Z,97322.69
2022-10-17T09:04:53.495Z,97320.50
2022-10-17T09:07:37.169Z,97315.97
2022-10-17T09:10:31.321Z,97316.13
2022-10-17T09:13:18.380Z,97304.41
2022-10-17T09:15:50.635Z,97311.59
2022-10-17T09:18:27.100Z,97305.31
2022-10-17T09:21:00.769Z,97305.94
2022-10-17T09:23:53.227Z,97311.69
2022-10-17T09:26:26.711Z,97310.09
2022-10-17T09:28:59.287Z,97306.31
2022-10-17T09:31:34.123Z,97308.63
2022-10-17T09:34:03.333Z,97309.91
2022-10-17T09:36:36.965Z,97309.59
2022-10-17T09:39:15.566Z,97315.38
2022-10-17T09:41:48.432Z,97322.25
2022-10-17T09:44:51.350Z,97321.09
2022-10-17T09:47:38.061Z,97321.78
2022-10-17T09:50:17.963Z,97312.25
2022-10-17T09:52:47.776Z,97324.06
2022-10-17T09:55:34.075Z,97328.78
2022-10-17T09:58:07.260Z,97323.00
2022-10-17T10:00:37.900Z,97329.63
2022-10-17T10:03:20.206Z,97328.28
2022-10-17T10:06:06.341Z,97330.13
2022-10-17T10:08:37.373Z,97327.38
2022-10-17T10:11:13.507Z,97335.56
2022-10-17T10:13:41.075Z,97332.88
2022-10-17T10:16:33.159Z,97340.38
2022-10-17T10:18:59.974Z,97331.16
2022-10-17T10:21:27.888Z,97325.78
2022-10-17T10:24:09.925Z,97318.22
2022-10-17T10:26:50.649Z,97327.44
2022-10-17T10:29:35.241Z,97317.13
2022-10-17T10:32:09.613Z,97318.53
2022-10-17T10:34:42.355Z,97322.91
2022-10-17T10:37:30.951Z,97314.44
2022-10-17T10:40:05.051Z,97310.91
2022-10-17T10:42:40.243Z,97316.38
2022-10-17T10:45:46.505Z,97317.41
2022-10-17T10:48:30.402Z,97320.50
2022-10-17T10:51:21.627Z,97315.63
2022-10-17T10:54:32.992Z,97317.78
2022-10-17T10:57:04.918Z,97318.88
2022-10-17T11:00:04.254Z,97313.31
2022-10-17T11:02:45.600Z,97307.03
2022-10-17T11:05:17.711Z,97304.03
2022-10-17T11:08:13.630Z,97306.00
2022-10-17T11:11:05.400Z,97297.44
2022-10-17T11:13:39.697Z,97302.47
2022-10-17T11:16:35.366Z,97300.59
2022-10-17T11:19:29.548Z,97286.56
2022-10-17T11:22:39.562Z,97288.03
2022-10-17T11:25:28.013Z,97293.94
2022-10-17T11:27:54.962Z,97297.09
2022-10-17T11:30:26.241Z,97303.69
2022-10-17T11:32:59.565Z,97295.88
2022-10-17T11:35:43.053Z,97294.47
2022-10-17T11:38:41.921Z,97295.69
2022-10-17T11:41:17.484Z,97295.22
2022-10-17T11:44:16.614Z,97289.81
2022-10-17T11:46:49.522Z,97283.09
2022-10-17T11:49:28.852Z,97282.31
2022-10-17T11:52:11.087Z,97287.56
2022-10-17T11:54:49.117Z,97282.03
2022-10-17T11:57:49.380Z,97286.38
2022-10-17T12:01:06.612Z,97288.78
2022-10-17T12:04:14.006Z,97284.75
2022-10-17T12:06:55.814Z,97282.59
2022-10-17T12:10:07.247Z,97277.63
2022-10-17T12:12:35.730Z,97271.88
2022-10-17T12:15:20.816Z,97278.34
2022-10-17T12:18:02.293Z,97273.34
2022-10-17T12:20:35.741Z,97270.16
2022-10-17T12:23:19.482Z,97271.94
2022-10-17T12:26:01.601Z,97256.84
2022-10-17T12:28:37.217Z,97256.28
2022-10-17T12:31:28.397Z,97256.03
2022-10-17T12:34:02.120Z,97250.72
2022-10-17T12:36:28.887Z,97258.00
2022-10-17T12:39:01.471Z,97260.84
2022-10-17T12:41:40.404Z,97257.47
2022-10-17T12:44:28.750Z,97253.66
2022-10-17T12:46:56.904Z,97252.03
2022-10-17T12:49:52.009Z,97253.78
2022-10-17T12:52:35.035Z,97251.03
2022-10-17T12:55:13.466Z,97254.13
2022-10-17T12:58:12.871Z,97254.06
2022-10-17T13:01:22.370Z,97255.78
2022-10-17T13:03:49.237Z,97251.13
2022-10-17T13:06:29.544Z,97257.66
2022-10-17T13:09:05.652Z,97254.94
2022-10-17T13:11:35.208Z,97254.47
2022-10-17T13:14:10.623Z,97250.59
2022-10-17T13:16:41.026Z,97250.69
2022-10-17T13:19:18.640Z,97252.97
2022-10-17T13:21:56.075Z,97247.34
2022-10-17T13:24:38.391Z,97247.81
2022-10-17T13:27:21.863Z,97256.66
2022-10-17T13:29:48.985Z,97261.94
2022-10-17T13:32:15.885Z,97254.56
2022-10-17T13:34:43.214Z,97247.00
2022-10-17T13:37:15.706Z,97251.16
2022-10-17T13:39:54.859Z,97253.00
2022-10-17T13:42:30.415Z,97257.84
2022-10-17T13:44:58.494Z,97256.16
2022-10-17T13:47:29.885Z,97251.34
2022-10-17T13:49:58.429Z,97253.34
2022-10-17T13:52:29.771Z,97252.56
2022-10-17T13:55:17.548Z,97247.28
2022-10-17T13:57:44.629Z,97243.09
2022-10-17T14:00:20.854Z,97242.50
2022-10-17T14:02:48.516Z,97242.31
2022-10-17T14:05:21.154Z,97241.69
2022-10-17T14:08:12.019Z,97253.09
2022-10-17T14:10:43.005Z,97246.03
2022-10-17T14:13:21.597Z,97241.06
2022-10-17T14:15:49.022Z,97252.53
2022-10-17T14:18:22.888Z,97250.22
2022-10-17T14:23:41.948Z,97250.03
2022-10-17T14:26:23.786Z,97258.53
2022-10-17T14:29:29.725Z,97254.66
2022-10-17T14:32:08.432Z,97259.19
2022-10-17T14:34:39.396Z,97253.06
2022-10-17T14:37:13.065Z,97250.06
2022-10-17T14:39:40.063Z,97251.75
2022-10-17T14:42:07.122Z,97258.88
2022-10-17T14:44:36.468Z,97262.38
2022-10-17T14:47:30.677Z,97263.38
2022-10-17T14:50:10.009Z,97260.63
2022-10-17T14:52:38.811Z,97273.22
2022-10-17T14:55:27.464Z,97267.28
2022-10-17T14:57:54.465Z,97274.06
2022-10-17T15:00:22.908Z,97269.78
2022-10-17T15:02:51.600Z,97266.19
2022-10-17T15:05:19.596Z,97272.34
2022-10-17T15:07:46.451Z,97278.13
2022-10-17T15:10:34.146Z,97283.56
2022-10-17T15:13:26.504Z,97280.88
2022-10-17T15:15:51.932Z,97273.66
2022-10-17T15:18:19.189Z,97283.00
2022-10-17T15:20:45.996Z,97291.50
2022-10-17T15:23:12.806Z,97290.78
2022-10-17T15:25:40.009Z,97294.34
2022-10-17T15:28:06.856Z,97289.22
2022-10-17T15:30:36.517Z,97294.56
2022-10-17T15:33:03.803Z,97296.50
2022-10-17T15:35:30.980Z,97294.56
2022-10-17T15:37:57.810Z,97292.91
2022-10-17T15:40:28.813Z,97295.44
2022-10-17T15:42:56.385Z,97293.78
2022-10-17T15:45:24.185Z,97292.06
2022-10-17T15:47:54.831Z,97297.69
2022-10-17T15:50:22.134Z,97298.19
2022-10-17T15:52:52.981Z,97299.00
2022-10-17T15:55:20.114Z,97300.72
2022-10-17T15:57:48.337Z,97306.44
2022-10-17T16:00:18.169Z,97311.84
2022-10-17T16:02:46.167Z,97311.41
2022-10-17T16:05:25.597Z,97315.47
2022-10-17T16:07:53.915Z,97314.34
2022-10-17T16:10:22.672Z,97316.91
2022-10-17T16:12:50.290Z,97324.22
2022-10-17T16:15:22.908Z,97320.44
2022-10-17T16:17:55.457Z,97319.69
2022-10-17T16:20:24.180Z,97332.75
2022-10-17T16:22:51.479Z,97342.47
2022-10-17T16:25:25.088Z,97333.41
2022-10-17T16:27:55.353Z,97341.34
2022-10-17T16:30:24.661Z,97343.47
2022-10-17T16:32:52.942Z,97341.44
2022-10-17T16:35:24.817Z,97349.16
2022-10-17T16:37:51.664Z,97350.22
2022-10-17T16:40:19.098Z,97349.75
2022-10-17T16:42:46.203Z,97362.19
2022-10-17T16:45:19.802Z,97357.47
2022-10-17T16:47:47.139Z,97366.88
2022-10-17T16:50:14.890Z,97362.19
2022-10-17T16:52:42.302Z,97361.97
2022-10-17T16:55:09.956Z,97368.13
2022-10-17T16:57:36.846Z,97371.47
2022-10-17T17:00:06.303Z,97371.91
2022-10-17T17:02:33.392Z,97375.63
2022-10-17T17:05:00.473Z,97377.22
2022-10-17T17:07:29.524Z,97380.44
2022-10-17T17:09:56.751Z,97386.25
2022-10-17T17:12:23.961Z,97383.47
2022-10-17T17:14:50.846Z,97389.31
2022-10-17T17:17:30.317Z,97384.25
2022-10-17T17:20:06.448Z,97396.44
2022-10-17T17:22:33.321Z,97384.72
2022-10-17T17:25:00.150Z,97388.88
2022-10-17T17:27:30.406Z,97390.06
2022-10-17T17:29:57.434Z,97395.38
2022-10-17T17:32:24.197Z,97399.25
2022-10-17T17:34:51.013Z,97401.03
2022-10-17T17:37:17.925Z,97408.84
2022-10-17T17:39:44.786Z,97406.03
2022-10-17T17:42:11.569Z,97402.78
2022-10-17T17:44:38.365Z,97409.03
2022-10-17T17:47:05.390Z,97399.31
2022-10-17T17:49:32.213Z,97412.72
2022-10-17T17:51:59.270Z,97407.44
2022-10-17T17:54:26.110Z,97402.97
2022-10-17T17:56:52.916Z,97416.44
2022-10-17T17:59:20.323Z,97414.28
2022-10-17T18:01:47.321Z,97418.16
2022-10-17T18:04:16.397Z,97413.47
2022-10-17T18:06:43.577Z,97415.94
2022-10-17T18:09:11.052Z,97426.94
2022-10-17T18:11:38.517Z,97424.06
2022-10-17T18:14:10.354Z,97427.59
2022-10-17T18:16:37.802Z,97425.72
2022-10-17T18:19:08.775Z,97427.38
2022-10-17T18:21:37.119Z,97419.63
2022-10-17T18:24:04.966Z,97424.13
2022-10-17T18:26:32.315Z,97430.28
2022-10-17T18:28:59.203Z,97426.25
2022-10-17T18:31:31.904Z,97426.69
2022-10-17T18:34:02.528Z,97424.88
2022-10-17T18:36:31.245Z,97428.78
2022-10-17T18:39:00.361Z,97428.38
2022-10-17T18:41:27.716Z,97425.91
2022-10-17T18:43:56.282Z,97430.03
2022-10-17T18:46:30.796Z,97437.00
2022-10-17T18:48:58.173Z,97435.38
2022-10-17T18:51:26.564Z,97432.94
2022-10-17T18:53:56.266Z,97439.47
2022-10-17T18:56:23.504Z,97439.03
2022-10-17T18:58:51.364Z,97441.91
2022-10-17T19:01:21.249Z,97445.16
2022-10-17T19:03:52.499Z,97443.94
2022-10-17T19:06:23.873Z,97435.75
2022-10-17T19:08:50.830Z,97441.50
2022-10-17T19:11:24.103Z,97443.94
2022-10-17T19:13:52.187Z,97439.03
2022-10-17T19:16:28.326Z,97443.94
2022-10-17T19:19:04.725Z,97445.16
2022-10-17T19:21:31.601Z,97450.06
2022-10-17T19:24:02.199Z,97440.47
2022-10-17T19:26:32.542Z,97448.00
2022-10-17T19:29:00.873Z,97449.25
2022-10-17T19:31:29.923Z,97447.63
2022-10-17T19:33:57.330Z,97445.13
2022-10-17T19:36:30.712Z,97444.72
2022-10-17T19:39:04.781Z,97441.88
2022-10-17T19:41:32.759Z,97440.66
2022-10-17T19:44:00.833Z,97449.22
2022-10-17T19:46:30.760Z,97449.44
2022-10-17T19:48:58.266Z,97448.41
2022-10-17T19:51:26.274Z,97445.97
2022-10-17T19:53:55.943Z,97445.97
2022-10-17T19:56:24.970Z,97448.41
2022-10-17T19:58:53.945Z,97444.75
2022-10-17T20:01:24.296Z,97451.28
2022-10-17T20:03:52.325Z,97448.81
2022-10-17T20:06:19.806Z,97448.81
2022-10-17T20:08:46.924Z,97453.91
2022-10-17T20:11:22.407Z,97455.72
2022-10-17T20:13:49.564Z,97462.25
2022-10-17T20:16:23.676Z,97459.38
2022-10-17T20:18:54.474Z,97459.38
2022-10-17T20:21:27.793Z,97462.25
2022-10-17T20:23:55.121Z,97461.00
2022-10-17T20:26:37.031Z,97461.78
2022-10-17T20:29:11.821Z,97455.66
2022-10-17T20:31:40.840Z,97464.00
2022-10-17T20:34:07.866Z,97465.03
2022-10-17T20:36:37.384Z,97471.09
2022-10-17T20:39:05.760Z,97465.94
2022-10-17T20:41:33.017Z,97468.56
2022-10-17T20:43:59.860Z,97469.00
2022-10-17T20:46:52.705Z,97463.72
2022-10-17T20:49:19.153Z,97470.19
2022-10-17T20:51:46.341Z,97479.53
2022-10-17T20:54:13.406Z,97484.88
2022-10-17T20:56:40.462Z,97479.13
2022-10-17T20:59:17.158Z,97479.38
2022-10-17T21:01:45.417Z,97490.41
2022-10-17T21:04:44.040Z,97476.72
2022-10-17T21:07:00.675Z,97481.78
2022-10-17T21:09:27.580Z,97482.41
2022-10-17T21:11:55.858Z,97475.31
2022-10-17T21:14:24.716Z,97477.56
2022-10-17T21:16:54.657Z,97482.44
2022-10-17T21:19:21.804Z,97485.69
2022-10-17T21:21:48.805Z,97484.03
2022-10-17T21:24:17.958Z,97487.88
2022-10-17T21:26:46.593Z,97492.16
2022-10-17T21:29:14.478Z,97490.81
2022-10-17T21:31:43.874Z,97487.44
2022-10-17T21:34:18.612Z,97487.50
2022-10-17T21:36:45.506Z,97478.97
2022-10-17T21:39:14.294Z,97486.91
2022-10-17T21:41:42.172Z,97486.44
2022-10-17T21:44:24.194Z,97481.47
2022-10-17T21:46:51.701Z,97475.06
2022-10-17T21:49:23.646Z,97490.53
2022-10-17T21:51:52.415Z,97490.06
2022-10-17T21:54:21.429Z,97483.91
2022-10-17T21:56:48.440Z,97476.59
2022-10-17T21:59:15.490Z,97484.75
2022-10-17T22:01:45.020Z,97492.88
2022-10-17T22:04:16.027Z,97483.09
2022-10-17T22:06:45.221Z,97477.81
2022-10-17T22:09:22.713Z,97475.13
2022-10-17T22:11:56.244Z,97482.84
2022-10-17T22:14:25.348Z,97485.06
2022-10-17T22:16:52.217Z,97482.59
2022-10-17T22:19:24.042Z,97480.50
2022-10-17T22:21:51.256Z,97473.16
2022-10-17T22:26:48.466Z,97484.13
2022-10-17T22:29:15.301Z,97483.75
2022-10-17T22:31:42.497Z,97481.28
2022-10-17T22:34:13.236Z,97484.75
2022-10-17T22:36:40.678Z,97478.78
2022-10-17T22:39:07.596Z,97478.03
2022-10-17T22:41:34.630Z,97484.69
2022-10-17T22:44:01.681Z,97483.19
2022-10-17T22:46:29.070Z,97486.19
2022-10-17T22:48:55.912Z,97489.00
2022-10-17T22:53:54.786Z,97489.75
2022-10-17T22:56:22.748Z,97488.53
2022-10-17T22:58:50.168Z,97477.13
2022-10-17T23:01:20.675Z,97480.41
2022-10-17T23:03:48.189Z,97491.00
2022-10-17T23:06:15.208Z,97492.19
2022-10-17T23:08:42.608Z,97491.81
2022-10-17T23:11:09.813Z,97487.09
2022-10-17T23:13:37.345Z,97487.66
2022-10-17T23:16:04.748Z,97477.78
2022-10-17T23:21:03.338Z,97482.56
2022-10-17T23:23:30.172Z,97478.94
2022-10-17T23:26:07.927Z,97478.53
2022-10-17T23:28:35.620Z,97484.47
2022-10-17T23:31:20.938Z,97474.47
2022-10-17T23:33:49.629Z,97470.34
2022-10-17T23:36:19.238Z,97477.56
2022-10-17T23:38:47.555Z,97469.97
2022-10-17T23:41:14.899Z,97474.34
2022-10-17T23:43:41.734Z,97472.09
2022-10-17T23:46:09.323Z,97466.00
2022-10-17T23:48:36.244Z,97472.09
2022-10-17T23:51:03.618Z,97468.66
2022-10-17T23:53:30.753Z,97474.53
2022-10-17T23:55:57.531Z,97459.91
2022-10-17T23:58:24.393Z,97468.81
